sensor_id;sensor_type;location;lat;lon;timestamp;pressure;altitude;pressure_sealevel;temperature;humidity
57050;BME280;42935;50.966;16.992;2024-03-02T00:06:21;100722.22;;;8.55;100.00
57050;BME280;42935;50.966;16.992;2024-03-02T00:15:55;100719.22;;;8.65;100.00
57050;BME280;42935;50.966;16.992;2024-03-02T00:25:19;100715.45;;;8.89;100.00
57050;BME280;42935;50.966;16.992;2024-03-02T00:34:44;100720.77;;;8.78;100.00
57050;BME280;42935;50.966;16.992;2024-03-02T00:44:14;100706.40;;;8.94;100.00
57050;BME280;42935;50.966;16.992;2024-03-02T00:53:39;100712.55;;;9.03;100.00
57050;BME280;42935;50.966;16.992;2024-03-02T01:02:59;100700.29;;;9.11;100.00
57050;BME280;42935;50.966;16.992;2024-03-02T01:12:27;100714.81;;;9.48;100.00
57050;BME280;42935;50.966;16.992;2024-03-02T01:21:43;100726.14;;;9.81;100.00
57050;BME280;42935;50.966;16.992;2024-03-02T01:31:13;100705.84;;;9.25;100.00
57050;BME280;42935;50.966;16.992;2024-03-02T01:40:35;100729.40;;;9.39;100.00
57050;BME280;42935;50.966;16.992;2024-03-02T01:49:55;100734.27;;;9.09;100.00
57050;BME280;42935;50.966;16.992;2024-03-02T01:59:15;100699.24;;;8.94;100.00
57050;BME280;42935;50.966;16.992;2024-03-02T02:08:30;100715.29;;;9.01;100.00
57050;BME280;42935;50.966;16.992;2024-03-02T02:17:54;100715.52;;;8.91;100.00
57050;BME280;42935;50.966;16.992;2024-03-02T02:27:16;100690.30;;;8.46;100.00
57050;BME280;42935;50.966;16.992;2024-03-02T02:36:45;100685.52;;;8.31;100.00
57050;BME280;42935;50.966;16.992;2024-03-02T02:46:08;100642.27;;;7.94;100.00
57050;BME280;42935;50.966;16.992;2024-03-02T02:55:24;100669.59;;;8.18;100.00
57050;BME280;42935;50.966;16.992;2024-03-02T03:04:48;100671.48;;;7.98;100.00
57050;BME280;42935;50.966;16.992;2024-03-02T03:14:16;100683.12;;;8.11;100.00
57050;BME280;42935;50.966;16.992;2024-03-02T03:23:33;100690.99;;;8.19;100.00
57050;BME280;42935;50.966;16.992;2024-03-02T03:32:56;100692.21;;;8.29;100.00
57050;BME280;42935;50.966;16.992;2024-03-02T03:42:19;100696.50;;;8.41;100.00
57050;BME280;42935;50.966;16.992;2024-03-02T03:51:38;100690.70;;;8.47;100.00
57050;BME280;42935;50.966;16.992;2024-03-02T04:00:58;100689.67;;;8.44;100.00
57050;BME280;42935;50.966;16.992;2024-03-02T04:10:22;100686.80;;;8.72;100.00
57050;BME280;42935;50.966;16.992;2024-03-02T04:19:49;100694.91;;;8.58;100.00
57050;BME280;42935;50.966;16.992;2024-03-02T04:29:12;100707.06;;;8.20;100.00
57050;BME280;42935;50.966;16.992;2024-03-02T04:38:28;100718.90;;;7.96;100.00
57050;BME280;42935;50.966;16.992;2024-03-02T04:47:51;100716.80;;;8.06;100.00
57050;BME280;42935;50.966;16.992;2024-03-02T04:57:14;100739.26;;;8.00;100.00
57050;BME280;42935;50.966;16.992;2024-03-02T05:06:35;100723.03;;;8.09;100.00
57050;BME280;42935;50.966;16.992;2024-03-02T05:16:00;100740.09;;;7.93;100.00
57050;BME280;42935;50.966;16.992;2024-03-02T05:25:25;100737.53;;;7.84;100.00
57050;BME280;42935;50.966;16.992;2024-03-02T05:34:49;100757.39;;;7.78;100.00
57050;BME280;42935;50.966;16.992;2024-03-02T05:44:11;100763.16;;;7.62;100.00
57050;BME280;42935;50.966;16.992;2024-03-02T05:53:32;100768.92;;;7.07;100.00
57050;BME280;42935;50.966;16.992;2024-03-02T06:02:57;100786.84;;;7.26;100.00
57050;BME280;42935;50.966;16.992;2024-03-02T06:12:22;100787.94;;;7.41;100.00
57050;BME280;42935;50.966;16.992;2024-03-02T06:21:49;100789.97;;;7.51;100.00
57050;BME280;42935;50.966;16.992;2024-03-02T06:31:22;100806.84;;;7.35;100.00
57050;BME280;42935;50.966;16.992;2024-03-02T06:40:49;100817.77;;;7.70;100.00
57050;BME280;42935;50.966;16.992;2024-03-02T06:50:14;100810.37;;;7.95;100.00
57050;BME280;42935;50.966;16.992;2024-03-02T06:59:40;100802.69;;;8.43;100.00
57050;BME280;42935;50.966;16.992;2024-03-02T07:09:06;100822.23;;;8.88;100.00
57050;BME280;42935;50.966;16.992;2024-03-02T07:18:33;100817.08;;;9.04;100.00
57050;BME280;42935;50.966;16.992;2024-03-02T07:28:03;100798.65;;;9.08;100.00
57050;BME280;42935;50.966;16.992;2024-03-02T07:37:29;100821.83;;;9.65;100.00
57050;BME280;42935;50.966;16.992;2024-03-02T07:46:49;100832.33;;;9.67;100.00
57050;BME280;42935;50.966;16.992;2024-03-02T07:56:12;100826.55;;;9.75;100.00
57050;BME280;42935;50.966;16.992;2024-03-02T08:05:38;100833.15;;;9.87;100.00
57050;BME280;42935;50.966;16.992;2024-03-02T08:14:53;100837.38;;;10.05;100.00
57050;BME280;42935;50.966;16.992;2024-03-02T08:24:11;100829.45;;;10.26;100.00
57050;BME280;42935;50.966;16.992;2024-03-02T08:33:41;100827.08;;;10.20;100.00
57050;BME280;42935;50.966;16.992;2024-03-02T08:43:01;100831.09;;;10.81;100.00
57050;BME280;42935;50.966;16.992;2024-03-02T08:52:26;100841.84;;;11.17;100.00
57050;BME280;42935;50.966;16.992;2024-03-02T09:01:49;100839.28;;;11.28;100.00
57050;BME280;42935;50.966;16.992;2024-03-02T09:11:20;100834.00;;;11.68;100.00
57050;BME280;42935;50.966;16.992;2024-03-02T09:20:37;100838.56;;;12.06;100.00
57050;BME280;42935;50.966;16.992;2024-03-02T09:30:02;100841.88;;;12.31;100.00
57050;BME280;42935;50.966;16.992;2024-03-02T09:39:20;100833.06;;;12.37;100.00
57050;BME280;42935;50.966;16.992;2024-03-02T09:48:41;100830.84;;;12.53;100.00
57050;BME280;42935;50.966;16.992;2024-03-02T09:58:00;100829.60;;;13.23;100.00
57050;BME280;42935;50.966;16.992;2024-03-02T10:07:19;100825.48;;;13.31;100.00
57050;BME280;42935;50.966;16.992;2024-03-02T10:16:42;100826.50;;;13.43;100.00
57050;BME280;42935;50.966;16.992;2024-03-02T10:26:02;100821.67;;;12.99;100.00
57050;BME280;42935;50.966;16.992;2024-03-02T10:35:21;100815.67;;;13.18;100.00
57050;BME280;42935;50.966;16.992;2024-03-02T10:44:42;100812.10;;;13.18;100.00
57050;BME280;42935;50.966;16.992;2024-03-02T10:54:05;100807.76;;;13.37;100.00
57050;BME280;42935;50.966;16.992;2024-03-02T11:03:30;100806.59;;;13.41;100.00
57050;BME280;42935;50.966;16.992;2024-03-02T11:13:03;100793.73;;;13.44;100.00
57050;BME280;42935;50.966;16.992;2024-03-02T11:22:31;100783.58;;;13.57;100.00
57050;BME280;42935;50.966;16.992;2024-03-02T11:32:00;100779.99;;;13.75;100.00
57050;BME280;42935;50.966;16.992;2024-03-02T11:41:21;100773.09;;;13.50;100.00
57050;BME280;42935;50.966;16.992;2024-03-02T11:50:51;100763.12;;;13.39;100.00
57050;BME280;42935;50.966;16.992;2024-03-02T12:00:21;100782.72;;;14.31;100.00
57050;BME280;42935;50.966;16.992;2024-03-02T12:09:36;100774.77;;;14.41;100.00
57050;BME280;42935;50.966;16.992;2024-03-02T12:18:54;100770.23;;;14.38;99.57
57050;BME280;42935;50.966;16.992;2024-03-02T12:28:09;100766.51;;;14.70;98.67
57050;BME280;42935;50.966;16.992;2024-03-02T12:37:25;100767.12;;;14.57;100.00
57050;BME280;42935;50.966;16.992;2024-03-02T12:46:42;100773.43;;;14.51;100.00
57050;BME280;42935;50.966;16.992;2024-03-02T12:56:00;100759.25;;;14.59;100.00
57050;BME280;42935;50.966;16.992;2024-03-02T13:05:19;100755.05;;;14.34;100.00
57050;BME280;42935;50.966;16.992;2024-03-02T13:14:53;100762.18;;;14.36;100.00
57050;BME280;42935;50.966;16.992;2024-03-02T13:24:14;100753.45;;;14.38;100.00
57050;BME280;42935;50.966;16.992;2024-03-02T13:33:34;100751.33;;;14.57;100.00
57050;BME280;42935;50.966;16.992;2024-03-02T13:43:05;100764.41;;;14.58;100.00
57050;BME280;42935;50.966;16.992;2024-03-02T13:52:22;100775.16;;;14.16;100.00
57050;BME280;42935;50.966;16.992;2024-03-02T14:01:41;100780.30;;;13.86;100.00
57050;BME280;42935;50.966;16.992;2024-03-02T14:10:56;100764.43;;;13.62;100.00
57050;BME280;42935;50.966;16.992;2024-03-02T14:20:21;100778.17;;;13.65;100.00
57050;BME280;42935;50.966;16.992;2024-03-02T14:29:45;100775.21;;;13.89;100.00
57050;BME280;42935;50.966;16.992;2024-03-02T14:39:18;100778.07;;;13.58;100.00
57050;BME280;42935;50.966;16.992;2024-03-02T14:48:35;100775.52;;;13.30;100.00
57050;BME280;42935;50.966;16.992;2024-03-02T14:58:00;100758.58;;;13.24;100.00
57050;BME280;42935;50.966;16.992;2024-03-02T15:07:16;100762.22;;;13.11;100.00
57050;BME280;42935;50.966;16.992;2024-03-02T15:16:41;100764.69;;;13.22;100.00
57050;BME280;42935;50.966;16.992;2024-03-02T15:26:06;100760.11;;;12.88;100.00
57050;BME280;42935;50.966;16.992;2024-03-02T15:35:22;100764.25;;;12.76;100.00
57050;BME280;42935;50.966;16.992;2024-03-02T15:54:23;100762.50;;;12.55;100.00
57050;BME280;42935;50.966;16.992;2024-03-02T16:03:52;100764.36;;;12.27;100.00
57050;BME280;42935;50.966;16.992;2024-03-02T16:13:13;100757.18;;;12.00;100.00
57050;BME280;42935;50.966;16.992;2024-03-02T16:22:33;100768.16;;;11.53;100.00
57050;BME280;42935;50.966;16.992;2024-03-02T16:31:57;100766.37;;;11.30;100.00
57050;BME280;42935;50.966;16.992;2024-03-02T16:41:32;100768.42;;;11.24;100.00
57050;BME280;42935;50.966;16.992;2024-03-02T16:51:00;100749.77;;;11.53;100.00
57050;BME280;42935;50.966;16.992;2024-03-02T17:00:24;100758.91;;;11.14;100.00
57050;BME280;42935;50.966;16.992;2024-03-02T17:09:46;100760.77;;;10.95;100.00
57050;BME280;42935;50.966;16.992;2024-03-02T17:19:09;100765.93;;;10.79;100.00
57050;BME280;42935;50.966;16.992;2024-03-02T17:28:32;100766.99;;;10.85;100.00
57050;BME280;42935;50.966;16.992;2024-03-02T17:37:56;100761.42;;;10.32;100.00
57050;BME280;42935;50.966;16.992;2024-03-02T17:47:20;100761.32;;;10.06;100.00
57050;BME280;42935;50.966;16.992;2024-03-02T17:56:40;100772.92;;;10.10;100.00
57050;BME280;42935;50.966;16.992;2024-03-02T18:06:05;100772.02;;;9.84;100.00
57050;BME280;42935;50.966;16.992;2024-03-02T18:15:26;100777.62;;;9.82;100.00
57050;BME280;42935;50.966;16.992;2024-03-02T18:24:47;100774.62;;;9.88;100.00
57050;BME280;42935;50.966;16.992;2024-03-02T18:34:07;100767.80;;;9.55;100.00
57050;BME280;42935;50.966;16.992;2024-03-02T18:43:31;100767.97;;;9.61;100.00
57050;BME280;42935;50.966;16.992;2024-03-02T18:52:51;100763.41;;;9.63;100.00
57050;BME280;42935;50.966;16.992;2024-03-02T19:02:07;100766.26;;;10.10;100.00
57050;BME280;42935;50.966;16.992;2024-03-02T19:11:34;100780.87;;;10.08;100.00
57050;BME280;42935;50.966;16.992;2024-03-02T19:20:54;100780.85;;;10.21;100.00
57050;BME280;42935;50.966;16.992;2024-03-02T19:30:16;100787.01;;;9.52;100.00
57050;BME280;42935;50.966;16.992;2024-03-02T19:39:36;100787.59;;;9.29;100.00
57050;BME280;42935;50.966;16.992;2024-03-02T19:49:04;100767.58;;;9.41;100.00
57050;BME280;42935;50.966;16.992;2024-03-02T19:58:18;100761.84;;;8.64;100.00
57050;BME280;42935;50.966;16.992;2024-03-02T20:07:37;100777.23;;;8.65;100.00
57050;BME280;42935;50.966;16.992;2024-03-02T20:17:03;100779.34;;;8.40;100.00
57050;BME280;42935;50.966;16.992;2024-03-02T20:26:17;100780.27;;;8.64;100.00
57050;BME280;42935;50.966;16.992;2024-03-02T20:35:35;100773.30;;;8.27;100.00
57050;BME280;42935;50.966;16.992;2024-03-02T20:44:55;100778.09;;;8.25;100.00
57050;BME280;42935;50.966;16.992;2024-03-02T20:54:15;100766.17;;;8.36;100.00
57050;BME280;42935;50.966;16.992;2024-03-02T21:03:35;100783.80;;;8.32;100.00
57050;BME280;42935;50.966;16.992;2024-03-02T21:12:56;100777.02;;;8.24;100.00
57050;BME280;42935;50.966;16.992;2024-03-02T21:22:16;100786.47;;;8.32;100.00
57050;BME280;42935;50.966;16.992;2024-03-02T21:31:33;100788.95;;;8.41;100.00
57050;BME280;42935;50.966;16.992;2024-03-02T21:40:48;100791.76;;;7.98;100.00
57050;BME280;42935;50.966;16.992;2024-03-02T21:50:06;100787.16;;;7.85;100.00
57050;BME280;42935;50.966;16.992;2024-03-02T21:59:26;100791.58;;;8.25;100.00
57050;BME280;42935;50.966;16.992;2024-03-02T22:08:49;100782.12;;;8.02;100.00
57050;BME280;42935;50.966;16.992;2024-03-02T22:18:09;100789.69;;;8.24;100.00
57050;BME280;42935;50.966;16.992;2024-03-02T22:27:24;100790.91;;;8.47;100.00
57050;BME280;42935;50.966;16.992;2024-03-02T22:36:42;100780.31;;;8.51;100.00
57050;BME280;42935;50.966;16.992;2024-03-02T22:46:01;100780.78;;;8.49;100.00
57050;BME280;42935;50.966;16.992;2024-03-02T22:55:24;100776.36;;;8.47;100.00
57050;BME280;42935;50.966;16.992;2024-03-02T23:04:47;100779.13;;;8.57;100.00
57050;BME280;42935;50.966;16.992;2024-03-02T23:14:08;100783.37;;;8.80;100.00
57050;BME280;42935;50.966;16.992;2024-03-02T23:23:30;100785.85;;;8.82;100.00
57050;BME280;42935;50.966;16.992;2024-03-02T23:32:49;100779.95;;;8.79;100.00
57050;BME280;42935;50.966;16.992;2024-03-02T23:42:05;100761.36;;;8.83;100.00
57050;BME280;42935;50.966;16.992;2024-03-02T23:51:26;100747.95;;;8.61;100.00
